sensor_id;sensor_type;location;lat;lon;timestamp;P1;durP1;ratioP1;P2;durP2;ratioP2
71475;SDS011;59286;59.274;17.974;2022-10-16T00:00:17;28.35;;;18.90;;
71475;SDS011;59286;59.274;17.974;2022-10-16T00:02:43;25.83;;;18.33;;
71475;SDS011;59286;59.274;17.974;2022-10-16T00:05:08;25.42;;;18.88;;
71475;SDS011;59286;59.274;17.974;2022-10-16T00:07:33;22.80;;;16.90;;
71475;SDS011;59286;59.274;17.974;2022-10-16T00:09:59;23.35;;;16.77;;
71475;SDS011;59286;59.274;17.974;2022-10-16T00:12:24;18.63;;;15.25;;
71475;SDS011;59286;59.274;17.974;2022-10-16T00:14:50;24.42;;;17.38;;
71475;SDS011;59286;59.274;17.974;2022-10-16T00:17:15;23.50;;;14.95;;
71475;SDS011;59286;59.274;17.974;2022-10-16T00:19:40;18.77;;;15.68;;
71475;SDS011;59286;59.274;17.974;2022-10-16T00:22:06;21.42;;;14.98;;
71475;SDS011;59286;59.274;17.974;2022-10-16T00:24:31;19.23;;;15.57;;
71475;SDS011;59286;59.274;17.974;2022-10-16T00:26:56;22.80;;;15.40;;
71475;SDS011;59286;59.274;17.974;2022-10-16T00:29:25;22.75;;;15.63;;
71475;SDS011;59286;59.274;17.974;2022-10-16T00:31:50;22.67;;;14.90;;
71475;SDS011;59286;59.274;17.974;2022-10-16T00:34:15;19.73;;;15.32;;
71475;SDS011;59286;59.274;17.974;2022-10-16T00:36:41;20.88;;;15.32;;
71475;SDS011;59286;59.274;17.974;2022-10-16T00:39:06;19.20;;;15.07;;
71475;SDS011;59286;59.274;17.974;2022-10-16T00:41:32;19.02;;;15.50;;
71475;SDS011;59286;59.274;17.974;2022-10-16T00:43:59;18.83;;;15.27;;
71475;SDS011;59286;59.274;17.974;2022-10-16T00:46:48;19.05;;;15.35;;
71475;SDS011;59286;59.274;17.974;2022-10-16T00:49:15;22.83;;;15.70;;
71475;SDS011;59286;59.274;17.974;2022-10-16T00:51:43;20.17;;;15.55;;
71475;SDS011;59286;59.274;17.974;2022-10-16T00:54:16;20.98;;;15.75;;
71475;SDS011;59286;59.274;17.974;2022-10-16T00:56:45;22.60;;;16.63;;
71475;SDS011;59286;59.274;17.974;2022-10-16T00:59:22;24.48;;;16.30;;
71475;SDS011;59286;59.274;17.974;2022-10-16T01:01:50;22.05;;;16.55;;
71475;SDS011;59286;59.274;17.974;2022-10-16T01:04:16;20.27;;;15.10;;
71475;SDS011;59286;59.274;17.974;2022-10-16T01:06:55;22.52;;;15.82;;
71475;SDS011;59286;59.274;17.974;2022-10-16T01:09:28;22.65;;;16.77;;
71475;SDS011;59286;59.274;17.974;2022-10-16T01:14:39;20.40;;;15.27;;
71475;SDS011;59286;59.274;17.974;2022-10-16T01:17:34;20.33;;;15.77;;
71475;SDS011;59286;59.274;17.974;2022-10-16T01:20:08;18.98;;;15.90;;
71475;SDS011;59286;59.274;17.974;2022-10-16T01:22:43;20.90;;;15.88;;
71475;SDS011;59286;59.274;17.974;2022-10-16T01:25:36;19.52;;;15.25;;
71475;SDS011;59286;59.274;17.974;2022-10-16T01:30:33;19.08;;;14.75;;
71475;SDS011;59286;59.274;17.974;2022-10-16T01:33:06;21.58;;;15.93;;
71475;SDS011;59286;59.274;17.974;2022-10-16T01:35:39;17.20;;;14.02;;
71475;SDS011;59286;59.274;17.974;2022-10-16T01:38:16;18.25;;;14.18;;
71475;SDS011;59286;59.274;17.974;2022-10-16T01:40:49;16.30;;;13.63;;
71475;SDS011;59286;59.274;17.974;2022-10-16T01:43:19;19.20;;;14.73;;
71475;SDS011;59286;59.274;17.974;2022-10-16T01:45:49;17.60;;;14.20;;
71475;SDS011;59286;59.274;17.974;2022-10-16T01:48:16;18.27;;;13.77;;
71475;SDS011;59286;59.274;17.974;2022-10-16T01:50:44;19.08;;;13.10;;
71475;SDS011;59286;59.274;17.974;2022-10-16T01:53:16;17.67;;;13.45;;
71475;SDS011;59286;59.274;17.974;2022-10-16T01:55:43;18.92;;;13.48;;
71475;SDS011;59286;59.274;17.974;2022-10-16T01:58:11;17.38;;;13.60;;
71475;SDS011;59286;59.274;17.974;2022-10-16T02:00:38;17.17;;;13.55;;
71475;SDS011;59286;59.274;17.974;2022-10-16T02:03:06;17.60;;;12.57;;
71475;SDS011;59286;59.274;17.974;2022-10-16T02:05:47;18.50;;;13.43;;
71475;SDS011;59286;59.274;17.974;2022-10-16T02:08:14;16.15;;;13.13;;
71475;SDS011;59286;59.274;17.974;2022-10-16T02:10:39;15.82;;;12.98;;
71475;SDS011;59286;59.274;17.974;2022-10-16T02:13:06;19.77;;;12.88;;
71475;SDS011;59286;59.274;17.974;2022-10-16T02:15:35;17.42;;;13.13;;
71475;SDS011;59286;59.274;17.974;2022-10-16T02:18:02;14.85;;;12.40;;
71475;SDS011;59286;59.274;17.974;2022-10-16T02:20:29;15.00;;;12.90;;
71475;SDS011;59286;59.274;17.974;2022-10-16T02:23:01;18.88;;;13.48;;
71475;SDS011;59286;59.274;17.974;2022-10-16T02:25:32;17.90;;;13.02;;
71475;SDS011;59286;59.274;17.974;2022-10-16T02:28:35;14.95;;;13.10;;
71475;SDS011;59286;59.274;17.974;2022-10-16T02:31:01;16.75;;;13.45;;
71475;SDS011;59286;59.274;17.974;2022-10-16T02:33:29;18.52;;;13.55;;
71475;SDS011;59286;59.274;17.974;2022-10-16T02:35:58;16.63;;;12.27;;
71475;SDS011;59286;59.274;17.974;2022-10-16T02:38:24;19.02;;;12.32;;
71475;SDS011;59286;59.274;17.974;2022-10-16T02:40:50;22.95;;;12.07;;
71475;SDS011;59286;59.274;17.974;2022-10-16T02:43:16;13.95;;;11.30;;
71475;SDS011;59286;59.274;17.974;2022-10-16T02:45:42;13.68;;;10.93;;
71475;SDS011;59286;59.274;17.974;2022-10-16T02:48:07;17.83;;;11.43;;
71475;SDS011;59286;59.274;17.974;2022-10-16T02:50:33;15.20;;;10.63;;
71475;SDS011;59286;59.274;17.974;2022-10-16T02:52:59;16.70;;;10.63;;
71475;SDS011;59286;59.274;17.974;2022-10-16T02:55:24;12.93;;;11.38;;
71475;SDS011;59286;59.274;17.974;2022-10-16T02:57:51;14.75;;;10.90;;
71475;SDS011;59286;59.274;17.974;2022-10-16T03:00:17;14.25;;;11.68;;
71475;SDS011;59286;59.274;17.974;2022-10-16T03:02:43;12.13;;;10.70;;
71475;SDS011;59286;59.274;17.974;2022-10-16T03:05:09;12.88;;;10.68;;
71475;SDS011;59286;59.274;17.974;2022-10-16T03:07:35;13.88;;;9.98;;
71475;SDS011;59286;59.274;17.974;2022-10-16T03:10:01;14.18;;;10.68;;
71475;SDS011;59286;59.274;17.974;2022-10-16T03:12:27;13.60;;;10.38;;
71475;SDS011;59286;59.274;17.974;2022-10-16T03:14:53;12.10;;;9.98;;
71475;SDS011;59286;59.274;17.974;2022-10-16T03:17:19;16.08;;;11.00;;
71475;SDS011;59286;59.274;17.974;2022-10-16T03:19:44;14.20;;;10.80;;
71475;SDS011;59286;59.274;17.974;2022-10-16T03:22:10;12.15;;;10.10;;
71475;SDS011;59286;59.274;17.974;2022-10-16T03:24:35;16.52;;;11.23;;
71475;SDS011;59286;59.274;17.974;2022-10-16T03:27:01;11.70;;;10.00;;
71475;SDS011;59286;59.274;17.974;2022-10-16T03:29:27;11.32;;;9.52;;
71475;SDS011;59286;59.274;17.974;2022-10-16T03:31:54;14.32;;;10.90;;
71475;SDS011;59286;59.274;17.974;2022-10-16T03:34:20;14.40;;;9.65;;
71475;SDS011;59286;59.274;17.974;2022-10-16T03:36:46;12.15;;;10.23;;
71475;SDS011;59286;59.274;17.974;2022-10-16T03:39:11;11.85;;;10.07;;
71475;SDS011;59286;59.274;17.974;2022-10-16T03:41:36;11.13;;;8.45;;
71475;SDS011;59286;59.274;17.974;2022-10-16T03:44:02;14.75;;;10.23;;
71475;SDS011;59286;59.274;17.974;2022-10-16T03:46:27;12.02;;;10.23;;
71475;SDS011;59286;59.274;17.974;2022-10-16T03:48:52;12.00;;;9.38;;
71475;SDS011;59286;59.274;17.974;2022-10-16T03:51:18;14.02;;;8.65;;
71475;SDS011;59286;59.274;17.974;2022-10-16T03:53:43;10.70;;;8.93;;
71475;SDS011;59286;59.274;17.974;2022-10-16T03:56:09;12.82;;;9.10;;
71475;SDS011;59286;59.274;17.974;2022-10-16T03:58:34;10.05;;;8.43;;
71475;SDS011;59286;59.274;17.974;2022-10-16T04:01:00;13.82;;;8.75;;
71475;SDS011;59286;59.274;17.974;2022-10-16T04:03:28;10.65;;;8.95;;
71475;SDS011;59286;59.274;17.974;2022-10-16T04:05:54;14.18;;;8.63;;
71475;SDS011;59286;59.274;17.974;2022-10-16T04:08:19;9.88;;;8.50;;
71475;SDS011;59286;59.274;17.974;2022-10-16T04:10:45;11.73;;;9.30;;
71475;SDS011;59286;59.274;17.974;2022-10-16T04:13:11;10.20;;;8.23;;
71475;SDS011;59286;59.274;17.974;2022-10-16T04:15:36;14.93;;;9.23;;
71475;SDS011;59286;59.274;17.974;2022-10-16T04:18:02;13.10;;;9.68;;
71475;SDS011;59286;59.274;17.974;2022-10-16T04:20:28;12.07;;;9.52;;
71475;SDS011;59286;59.274;17.974;2022-10-16T04:22:53;13.10;;;8.70;;
71475;SDS011;59286;59.274;17.974;2022-10-16T04:25:19;13.20;;;8.80;;
71475;SDS011;59286;59.274;17.974;2022-10-16T04:27:44;11.35;;;9.27;;
71475;SDS011;59286;59.274;17.974;2022-10-16T04:30:09;9.18;;;8.18;;
71475;SDS011;59286;59.274;17.974;2022-10-16T04:32:35;10.07;;;8.52;;
71475;SDS011;59286;59.274;17.974;2022-10-16T04:35:01;10.27;;;8.68;;
71475;SDS011;59286;59.274;17.974;2022-10-16T04:37:26;10.07;;;8.65;;
71475;SDS011;59286;59.274;17.974;2022-10-16T04:39:52;12.88;;;8.20;;
71475;SDS011;59286;59.274;17.974;2022-10-16T04:42:20;11.68;;;8.60;;
71475;SDS011;59286;59.274;17.974;2022-10-16T04:44:46;10.80;;;8.50;;
71475;SDS011;59286;59.274;17.974;2022-10-16T04:47:12;10.05;;;8.85;;
71475;SDS011;59286;59.274;17.974;2022-10-16T04:49:37;10.82;;;7.82;;
71475;SDS011;59286;59.274;17.974;2022-10-16T04:52:03;11.95;;;7.97;;
71475;SDS011;59286;59.274;17.974;2022-10-16T04:54:28;9.20;;;8.07;;
71475;SDS011;59286;59.274;17.974;2022-10-16T04:56:53;10.18;;;8.73;;
71475;SDS011;59286;59.274;17.974;2022-10-16T04:59:19;9.55;;;8.27;;
71475;SDS011;59286;59.274;17.974;2022-10-16T05:01:45;11.93;;;7.95;;
71475;SDS011;59286;59.274;17.974;2022-10-16T05:04:10;11.43;;;8.60;;
71475;SDS011;59286;59.274;17.974;2022-10-16T05:06:36;10.32;;;8.35;;
71475;SDS011;59286;59.274;17.974;2022-10-16T05:09:03;12.70;;;8.95;;
71475;SDS011;59286;59.274;17.974;2022-10-16T05:11:29;11.00;;;9.13;;
71475;SDS011;59286;59.274;17.974;2022-10-16T05:13:55;15.02;;;9.68;;
71475;SDS011;59286;59.274;17.974;2022-10-16T05:16:20;12.35;;;9.15;;
71475;SDS011;59286;59.274;17.974;2022-10-16T05:18:48;12.15;;;8.93;;
71475;SDS011;59286;59.274;17.974;2022-10-16T05:21:13;11.88;;;9.13;;
71475;SDS011;59286;59.274;17.974;2022-10-16T05:23:39;11.63;;;9.45;;
71475;SDS011;59286;59.274;17.974;2022-10-16T05:26:04;15.63;;;10.43;;
71475;SDS011;59286;59.274;17.974;2022-10-16T05:28:30;11.18;;;9.27;;
71475;SDS011;59286;59.274;17.974;2022-10-16T05:30:55;16.17;;;10.40;;
71475;SDS011;59286;59.274;17.974;2022-10-16T05:33:22;14.52;;;10.48;;
71475;SDS011;59286;59.274;17.974;2022-10-16T05:35:50;11.35;;;9.77;;
71475;SDS011;59286;59.274;17.974;2022-10-16T05:38:16;16.70;;;10.20;;
71475;SDS011;59286;59.274;17.974;2022-10-16T05:40:42;14.13;;;10.20;;
71475;SDS011;59286;59.274;17.974;2022-10-16T05:43:07;17.55;;;10.48;;
71475;SDS011;59286;59.274;17.974;2022-10-16T05:45:33;18.40;;;11.43;;
71475;SDS011;59286;59.274;17.974;2022-10-16T05:47:59;16.67;;;11.75;;
71475;SDS011;59286;59.274;17.974;2022-10-16T05:50:27;16.45;;;11.70;;
71475;SDS011;59286;59.274;17.974;2022-10-16T05:52:53;18.05;;;12.45;;
71475;SDS011;59286;59.274;17.974;2022-10-16T05:55:18;17.30;;;12.45;;
71475;SDS011;59286;59.274;17.974;2022-10-16T05:57:43;17.00;;;13.30;;
71475;SDS011;59286;59.274;17.974;2022-10-16T06:00:09;16.08;;;13.18;;
71475;SDS011;59286;59.274;17.974;2022-10-16T06:02:35;20.80;;;13.43;;
71475;SDS011;59286;59.274;17.974;2022-10-16T06:05:01;19.55;;;14.40;;
71475;SDS011;59286;59.274;17.974;2022-10-16T06:07:26;19.35;;;14.13;;
71475;SDS011;59286;59.274;17.974;2022-10-16T06:09:52;22.70;;;16.33;;
71475;SDS011;59286;59.274;17.974;2022-10-16T06:12:18;20.25;;;15.25;;
71475;SDS011;59286;59.274;17.974;2022-10-16T06:14:44;21.55;;;15.07;;
71475;SDS011;59286;59.274;17.974;2022-10-16T06:17:12;21.67;;;15.90;;
71475;SDS011;59286;59.274;17.974;2022-10-16T06:19:38;24.27;;;15.90;;
71475;SDS011;59286;59.274;17.974;2022-10-16T06:22:04;24.35;;;16.63;;
71475;SDS011;59286;59.274;17.974;2022-10-16T06:24:29;25.33;;;17.02;;
71475;SDS011;59286;59.274;17.974;2022-10-16T06:26:54;26.33;;;18.40;;
71475;SDS011;59286;59.274;17.974;2022-10-16T06:29:20;23.23;;;16.70;;
71475;SDS011;59286;59.274;17.974;2022-10-16T06:31:45;25.90;;;17.23;;
71475;SDS011;59286;59.274;17.974;2022-10-16T06:34:11;23.23;;;16.83;;
71475;SDS011;59286;59.274;17.974;2022-10-16T06:36:37;26.38;;;16.73;;
71475;SDS011;59286;59.274;17.974;2022-10-16T06:39:03;25.27;;;17.88;;
71475;SDS011;59286;59.274;17.974;2022-10-16T06:41:30;24.17;;;17.80;;
71475;SDS011;59286;59.274;17.974;2022-10-16T06:43:56;29.35;;;18.80;;
71475;SDS011;59286;59.274;17.974;2022-10-16T06:46:22;26.08;;;18.15;;
71475;SDS011;59286;59.274;17.974;2022-10-16T06:48:49;28.67;;;18.48;;
71475;SDS011;59286;59.274;17.974;2022-10-16T06:51:16;23.92;;;17.42;;
71475;SDS011;59286;59.274;17.974;2022-10-16T06:53:43;22.77;;;16.60;;
71475;SDS011;59286;59.274;17.974;2022-10-16T06:56:11;28.25;;;18.90;;
71475;SDS011;59286;59.274;17.974;2022-10-16T06:58:38;26.92;;;18.15;;
71475;SDS011;59286;59.274;17.974;2022-10-16T07:01:05;20.95;;;16.25;;
71475;SDS011;59286;59.274;17.974;2022-10-16T07:03:31;26.02;;;16.80;;
71475;SDS011;59286;59.274;17.974;2022-10-16T07:06:00;21.00;;;15.52;;
71475;SDS011;59286;59.274;17.974;2022-10-16T07:08:30;17.73;;;13.98;;
71475;SDS011;59286;59.274;17.974;2022-10-16T07:11:00;17.08;;;14.57;;
71475;SDS011;59286;59.274;17.974;2022-10-16T07:13:27;18.73;;;13.50;;
71475;SDS011;59286;59.274;17.974;2022-10-16T07:15:53;16.48;;;13.02;;
71475;SDS011;59286;59.274;17.974;2022-10-16T07:18:18;16.30;;;13.05;;
71475;SDS011;59286;59.274;17.974;2022-10-16T07:20:44;19.65;;;13.85;;
71475;SDS011;59286;59.274;17.974;2022-10-16T07:23:09;16.48;;;11.60;;
71475;SDS011;59286;59.274;17.974;2022-10-16T07:25:35;15.35;;;11.50;;
71475;SDS011;59286;59.274;17.974;2022-10-16T07:28:00;16.13;;;11.13;;
71475;SDS011;59286;59.274;17.974;2022-10-16T07:30:25;12.32;;;9.90;;
71475;SDS011;59286;59.274;17.974;2022-10-16T07:32:51;12.02;;;9.82;;
71475;SDS011;59286;59.274;17.974;2022-10-16T07:35:16;12.05;;;8.98;;
71475;SDS011;59286;59.274;17.974;2022-10-16T07:37:45;11.77;;;9.00;;
71475;SDS011;59286;59.274;17.974;2022-10-16T07:40:11;12.38;;;8.90;;
71475;SDS011;59286;59.274;17.974;2022-10-16T07:42:37;9.85;;;7.70;;
71475;SDS011;59286;59.274;17.974;2022-10-16T07:45:03;8.95;;;7.07;;
71475;SDS011;59286;59.274;17.974;2022-10-16T07:47:28;9.50;;;6.80;;
71475;SDS011;59286;59.274;17.974;2022-10-16T07:49:54;9.73;;;6.70;;
71475;SDS011;59286;59.274;17.974;2022-10-16T07:52:19;8.35;;;6.03;;
71475;SDS011;59286;59.274;17.974;2022-10-16T07:54:45;8.95;;;6.43;;
71475;SDS011;59286;59.274;17.974;2022-10-16T07:57:10;9.93;;;6.47;;
71475;SDS011;59286;59.274;17.974;2022-10-16T07:59:35;11.02;;;5.65;;
71475;SDS011;59286;59.274;17.974;2022-10-16T08:02:01;7.65;;;6.00;;
71475;SDS011;59286;59.274;17.974;2022-10-16T08:04:26;8.60;;;6.00;;
71475;SDS011;59286;59.274;17.974;2022-10-16T08:06:52;8.63;;;6.20;;
71475;SDS011;59286;59.274;17.974;2022-10-16T08:09:19;6.50;;;5.80;;
71475;SDS011;59286;59.274;17.974;2022-10-16T08:11:44;7.22;;;5.57;;
71475;SDS011;59286;59.274;17.974;2022-10-16T08:14:10;8.52;;;5.82;;
71475;SDS011;59286;59.274;17.974;2022-10-16T08:16:38;9.32;;;5.28;;
71475;SDS011;59286;59.274;17.974;2022-10-16T08:19:04;8.75;;;5.28;;
71475;SDS011;59286;59.274;17.974;2022-10-16T08:21:29;5.60;;;5.10;;
71475;SDS011;59286;59.274;17.974;2022-10-16T08:23:55;6.47;;;4.85;;
71475;SDS011;59286;59.274;17.974;2022-10-16T08:26:20;7.50;;;5.22;;
71475;SDS011;59286;59.274;17.974;2022-10-16T08:28:46;7.25;;;4.80;;
71475;SDS011;59286;59.274;17.974;2022-10-16T08:31:15;7.75;;;4.95;;
71475;SDS011;59286;59.274;17.974;2022-10-16T08:33:42;7.13;;;4.68;;
71475;SDS011;59286;59.274;17.974;2022-10-16T08:36:09;4.82;;;4.18;;
71475;SDS011;59286;59.274;17.974;2022-10-16T08:38:35;6.95;;;4.65;;
71475;SDS011;59286;59.274;17.974;2022-10-16T08:49:10;8.45;;;4.50;;
71475;SDS011;59286;59.274;17.974;2022-10-16T08:51:38;4.07;;;3.65;;
71475;SDS011;59286;59.274;17.974;2022-10-16T08:54:06;6.93;;;4.22;;
71475;SDS011;59286;59.274;17.974;2022-10-16T08:56:56;7.18;;;4.20;;
71475;SDS011;59286;59.274;17.974;2022-10-16T08:59:26;7.47;;;4.22;;
71475;SDS011;59286;59.274;17.974;2022-10-16T09:01:51;4.68;;;3.53;;
71475;SDS011;59286;59.274;17.974;2022-10-16T09:06:58;5.57;;;3.90;;
71475;SDS011;59286;59.274;17.974;2022-10-16T09:22:35;8.27;;;3.45;;
71475;SDS011;59286;59.274;17.974;2022-10-16T09:25:05;5.68;;;2.63;;
71475;SDS011;59286;59.274;17.974;2022-10-16T09:27:36;7.38;;;3.72;;
71475;SDS011;59286;59.274;17.974;2022-10-16T09:30:10;4.55;;;3.13;;
71475;SDS011;59286;59.274;17.974;2022-10-16T09:32:37;6.95;;;3.00;;
71475;SDS011;59286;59.274;17.974;2022-10-16T09:35:04;9.38;;;3.17;;
71475;SDS011;59286;59.274;17.974;2022-10-16T09:37:41;5.90;;;3.22;;
71475;SDS011;59286;59.274;17.974;2022-10-16T09:40:12;9.52;;;3.25;;
71475;SDS011;59286;59.274;17.974;2022-10-16T09:42:48;6.15;;;3.10;;
71475;SDS011;59286;59.274;17.974;2022-10-16T09:45:21;6.38;;;3.28;;
71475;SDS011;59286;59.274;17.974;2022-10-16T09:47:48;5.90;;;3.13;;
71475;SDS011;59286;59.274;17.974;2022-10-16T09:50:24;8.27;;;2.83;;
71475;SDS011;59286;59.274;17.974;2022-10-16T09:53:13;5.00;;;2.67;;
71475;SDS011;59286;59.274;17.974;2022-10-16T09:55:48;6.78;;;2.90;;
71475;SDS011;59286;59.274;17.974;2022-10-16T09:58:15;4.60;;;2.67;;
71475;SDS011;59286;59.274;17.974;2022-10-16T10:00:41;8.00;;;3.20;;
71475;SDS011;59286;59.274;17.974;2022-10-16T10:03:13;3.85;;;2.53;;
71475;SDS011;59286;59.274;17.974;2022-10-16T10:05:48;9.35;;;2.92;;
71475;SDS011;59286;59.274;17.974;2022-10-16T10:08:16;7.45;;;3.20;;
71475;SDS011;59286;59.274;17.974;2022-10-16T10:10:43;4.57;;;2.65;;
71475;SDS011;59286;59.274;17.974;2022-10-16T10:13:18;5.35;;;2.58;;
71475;SDS011;59286;59.274;17.974;2022-10-16T10:15:46;8.70;;;2.65;;
71475;SDS011;59286;59.274;17.974;2022-10-16T10:18:18;9.65;;;2.55;;
71475;SDS011;59286;59.274;17.974;2022-10-16T10:20:56;4.30;;;2.25;;
71475;SDS011;59286;59.274;17.974;2022-10-16T10:23:24;5.65;;;2.33;;
71475;SDS011;59286;59.274;17.974;2022-10-16T10:26:05;7.30;;;2.80;;
71475;SDS011;59286;59.274;17.974;2022-10-16T10:31:25;7.40;;;2.50;;
71475;SDS011;59286;59.274;17.974;2022-10-16T10:36:38;5.43;;;2.38;;
71475;SDS011;59286;59.274;17.974;2022-10-16T10:41:38;4.50;;;2.13;;
71475;SDS011;59286;59.274;17.974;2022-10-16T10:44:23;6.30;;;2.25;;
71475;SDS011;59286;59.274;17.974;2022-10-16T10:47:01;5.03;;;2.65;;
71475;SDS011;59286;59.274;17.974;2022-10-16T10:52:06;6.45;;;2.30;;
71475;SDS011;59286;59.274;17.974;2022-10-16T10:58:06;4.55;;;2.10;;
71475;SDS011;59286;59.274;17.974;2022-10-16T11:06:18;4.82;;;2.08;;
71475;SDS011;59286;59.274;17.974;2022-10-16T11:08:58;6.25;;;2.22;;
71475;SDS011;59286;59.274;17.974;2022-10-16T11:14:27;7.15;;;2.00;;
71475;SDS011;59286;59.274;17.974;2022-10-16T11:17:08;5.38;;;2.40;;
71475;SDS011;59286;59.274;17.974;2022-10-16T11:19:58;6.28;;;2.00;;
71475;SDS011;59286;59.274;17.974;2022-10-16T11:22:38;7.43;;;2.00;;
71475;SDS011;59286;59.274;17.974;2022-10-16T11:25:26;10.07;;;2.25;;
71475;SDS011;59286;59.274;17.974;2022-10-16T11:30:57;7.30;;;3.22;;
71475;SDS011;59286;59.274;17.974;2022-10-16T11:33:32;11.07;;;3.83;;
71475;SDS011;59286;59.274;17.974;2022-10-16T11:39:21;4.60;;;2.90;;
71475;SDS011;59286;59.274;17.974;2022-10-16T11:41:41;8.77;;;2.78;;
71475;SDS011;59286;59.274;17.974;2022-10-16T11:47:14;5.50;;;3.10;;
71475;SDS011;59286;59.274;17.974;2022-10-16T11:49:40;5.47;;;3.45;;
71475;SDS011;59286;59.274;17.974;2022-10-16T11:52:19;6.15;;;3.45;;
71475;SDS011;59286;59.274;17.974;2022-10-16T11:54:55;8.98;;;3.05;;
71475;SDS011;59286;59.274;17.974;2022-10-16T11:57:27;6.95;;;3.30;;
71475;SDS011;59286;59.274;17.974;2022-10-16T12:00:19;6.80;;;3.17;;
71475;SDS011;59286;59.274;17.974;2022-10-16T12:10:29;8.75;;;3.53;;
71475;SDS011;59286;59.274;17.974;2022-10-16T12:13:02;4.45;;;2.40;;
71475;SDS011;59286;59.274;17.974;2022-10-16T12:15:30;3.58;;;2.00;;
71475;SDS011;59286;59.274;17.974;2022-10-16T12:17:57;7.43;;;2.80;;
71475;SDS011;59286;59.274;17.974;2022-10-16T12:20:25;8.73;;;2.90;;
71475;SDS011;59286;59.274;17.974;2022-10-16T12:22:59;5.45;;;2.65;;
71475;SDS011;59286;59.274;17.974;2022-10-16T12:25:30;4.10;;;2.55;;
71475;SDS011;59286;59.274;17.974;2022-10-16T12:30:30;5.32;;;2.40;;
71475;SDS011;59286;59.274;17.974;2022-10-16T12:32:58;8.23;;;2.20;;
71475;SDS011;59286;59.274;17.974;2022-10-16T12:35:31;4.25;;;1.83;;
71475;SDS011;59286;59.274;17.974;2022-10-16T12:38:12;3.05;;;1.80;;
71475;SDS011;59286;59.274;17.974;2022-10-16T12:40:42;4.00;;;2.15;;
71475;SDS011;59286;59.274;17.974;2022-10-16T12:43:27;4.78;;;2.10;;
71475;SDS011;59286;59.274;17.974;2022-10-16T12:46:05;3.60;;;1.77;;
71475;SDS011;59286;59.274;17.974;2022-10-16T12:48:44;3.55;;;1.80;;
71475;SDS011;59286;59.274;17.974;2022-10-16T12:51:11;5.03;;;2.03;;
71475;SDS011;59286;59.274;17.974;2022-10-16T12:53:46;3.10;;;1.90;;
71475;SDS011;59286;59.274;17.974;2022-10-16T13:00:13;4.72;;;2.08;;
71475;SDS011;59286;59.274;17.974;2022-10-16T13:02:45;7.10;;;2.03;;
71475;SDS011;59286;59.274;17.974;2022-10-16T13:11:32;5.75;;;1.83;;
71475;SDS011;59286;59.274;17.974;2022-10-16T13:22:56;3.53;;;1.67;;
71475;SDS011;59286;59.274;17.974;2022-10-16T13:28:04;4.35;;;1.50;;
71475;SDS011;59286;59.274;17.974;2022-10-16T13:30:34;4.38;;;2.20;;
71475;SDS011;59286;59.274;17.974;2022-10-16T13:35:36;5.10;;;1.80;;
71475;SDS011;59286;59.274;17.974;2022-10-16T13:38:08;5.32;;;1.60;;
71475;SDS011;59286;59.274;17.974;2022-10-16T13:40:48;4.07;;;1.65;;
71475;SDS011;59286;59.274;17.974;2022-10-16T13:46:00;4.18;;;1.60;;
71475;SDS011;59286;59.274;17.974;2022-10-16T13:48:55;5.25;;;1.58;;
71475;SDS011;59286;59.274;17.974;2022-10-16T13:51:27;4.32;;;1.77;;
71475;SDS011;59286;59.274;17.974;2022-10-16T13:53:56;5.07;;;1.90;;
71475;SDS011;59286;59.274;17.974;2022-10-16T13:56:24;2.47;;;1.40;;
71475;SDS011;59286;59.274;17.974;2022-10-16T13:58:59;5.20;;;1.40;;
71475;SDS011;59286;59.274;17.974;2022-10-16T14:01:35;7.72;;;1.95;;
71475;SDS011;59286;59.274;17.974;2022-10-16T14:04:05;5.20;;;1.58;;
71475;SDS011;59286;59.274;17.974;2022-10-16T14:06:36;3.92;;;1.50;;
71475;SDS011;59286;59.274;17.974;2022-10-16T14:09:07;7.57;;;1.60;;
71475;SDS011;59286;59.274;17.974;2022-10-16T14:11:48;6.90;;;2.10;;
71475;SDS011;59286;59.274;17.974;2022-10-16T14:14:16;4.68;;;1.95;;
71475;SDS011;59286;59.274;17.974;2022-10-16T14:16:42;13.15;;;1.70;;
71475;SDS011;59286;59.274;17.974;2022-10-16T14:19:17;5.13;;;1.50;;
71475;SDS011;59286;59.274;17.974;2022-10-16T14:21:47;8.07;;;1.92;;
71475;SDS011;59286;59.274;17.974;2022-10-16T14:24:22;5.45;;;1.70;;
71475;SDS011;59286;59.274;17.974;2022-10-16T14:26:55;5.68;;;1.67;;
71475;SDS011;59286;59.274;17.974;2022-10-16T14:29:29;7.57;;;1.90;;
71475;SDS011;59286;59.274;17.974;2022-10-16T14:32:03;5.60;;;1.60;;
71475;SDS011;59286;59.274;17.974;2022-10-16T14:34:54;5.63;;;1.83;;
71475;SDS011;59286;59.274;17.974;2022-10-16T14:37:28;6.45;;;1.63;;
71475;SDS011;59286;59.274;17.974;2022-10-16T14:39:54;8.43;;;1.92;;
71475;SDS011;59286;59.274;17.974;2022-10-16T14:42:22;5.68;;;1.90;;
71475;SDS011;59286;59.274;17.974;2022-10-16T14:44:52;4.63;;;1.90;;
71475;SDS011;59286;59.274;17.974;2022-10-16T14:47:22;7.15;;;2.10;;
71475;SDS011;59286;59.274;17.974;2022-10-16T14:49:51;5.30;;;1.73;;
71475;SDS011;59286;59.274;17.974;2022-10-16T14:52:20;7.45;;;2.60;;
71475;SDS011;59286;59.274;17.974;2022-10-16T14:54:48;9.93;;;5.68;;
71475;SDS011;59286;59.274;17.974;2022-10-16T14:57:18;7.10;;;3.20;;
71475;SDS011;59286;59.274;17.974;2022-10-16T14:59:44;21.05;;;13.55;;
71475;SDS011;59286;59.274;17.974;2022-10-16T15:02:29;10.27;;;4.38;;
71475;SDS011;59286;59.274;17.974;2022-10-16T15:04:56;11.02;;;3.83;;
71475;SDS011;59286;59.274;17.974;2022-10-16T15:07:23;7.80;;;2.85;;
71475;SDS011;59286;59.274;17.974;2022-10-16T15:09:49;9.43;;;3.28;;
71475;SDS011;59286;59.274;17.974;2022-10-16T15:12:17;9.07;;;2.38;;
71475;SDS011;59286;59.274;17.974;2022-10-16T15:14:43;8.10;;;2.30;;
71475;SDS011;59286;59.274;17.974;2022-10-16T15:17:11;8.75;;;2.15;;
71475;SDS011;59286;59.274;17.974;2022-10-16T15:19:36;8.18;;;2.72;;
71475;SDS011;59286;59.274;17.974;2022-10-16T15:22:02;13.52;;;3.30;;
71475;SDS011;59286;59.274;17.974;2022-10-16T15:24:28;5.40;;;1.08;;
71475;SDS011;59286;59.274;17.974;2022-10-16T15:26:53;5.18;;;1.00;;
71475;SDS011;59286;59.274;17.974;2022-10-16T15:29:18;6.60;;;1.30;;
71475;SDS011;59286;59.274;17.974;2022-10-16T15:31:44;3.75;;;0.80;;
71475;SDS011;59286;59.274;17.974;2022-10-16T15:34:12;5.85;;;1.40;;
71475;SDS011;59286;59.274;17.974;2022-10-16T15:36:38;2.58;;;1.20;;
71475;SDS011;59286;59.274;17.974;2022-10-16T15:39:17;3.13;;;1.60;;
71475;SDS011;59286;59.274;17.974;2022-10-16T15:41:46;5.45;;;2.45;;
71475;SDS011;59286;59.274;17.974;2022-10-16T15:44:18;5.88;;;2.30;;
71475;SDS011;59286;59.274;17.974;2022-10-16T15:46:45;7.57;;;3.15;;
71475;SDS011;59286;59.274;17.974;2022-10-16T15:49:11;6.30;;;2.88;;
71475;SDS011;59286;59.274;17.974;2022-10-16T15:51:38;5.47;;;1.85;;
71475;SDS011;59286;59.274;17.974;2022-10-16T15:54:05;5.90;;;1.55;;
71475;SDS011;59286;59.274;17.974;2022-10-16T15:56:30;8.13;;;2.13;;
71475;SDS011;59286;59.274;17.974;2022-10-16T15:58:58;6.10;;;2.75;;
71475;SDS011;59286;59.274;17.974;2022-10-16T16:01:24;6.45;;;1.95;;
71475;SDS011;59286;59.274;17.974;2022-10-16T16:03:52;4.70;;;1.75;;
71475;SDS011;59286;59.274;17.974;2022-10-16T16:06:18;6.65;;;2.45;;
71475;SDS011;59286;59.274;17.974;2022-10-16T16:08:43;5.85;;;2.00;;
71475;SDS011;59286;59.274;17.974;2022-10-16T16:11:13;7.65;;;2.17;;